sensor_id;sensor_type;location;lat;lon;timestamp;pressure;altitude;pressure_sealevel;temperature;humidity
9523;BME280;63165;43.016;25.784;2023-07-08T00:00:22;99969.69;;;22.03;100.00
9523;BME280;63165;43.016;25.784;2023-07-08T00:02:50;99986.13;;;22.09;100.00
9523;BME280;63165;43.016;25.784;2023-07-08T00:05:19;99884.69;;;21.17;100.00
9523;BME280;63165;43.016;25.784;2023-07-08T00:07:47;99994.88;;;22.12;100.00
9523;BME280;63165;43.016;25.784;2023-07-08T00:10:16;99882.31;;;21.12;100.00
9523;BME280;63165;43.016;25.784;2023-07-08T00:12:46;99990.16;;;22.02;100.00
9523;BME280;63165;43.016;25.784;2023-07-08T00:15:16;99974.59;;;21.96;100.00
9523;BME280;63165;43.016;25.784;2023-07-08T00:17:44;99988.69;;;21.84;100.00
9523;BME280;63165;43.016;25.784;2023-07-08T00:20:17;99931.78;;;21.58;100.00
9523;BME280;63165;43.016;25.784;2023-07-08T00:22:44;100079.97;;;22.15;100.00
9523;BME280;63165;43.016;25.784;2023-07-08T00:25:15;99890.94;;;21.30;100.00
9523;BME280;63165;43.016;25.784;2023-07-08T00:27:45;99804.19;;;20.86;100.00
9523;BME280;63165;43.016;25.784;2023-07-08T00:30:29;100030.63;;;22.22;100.00
9523;BME280;63165;43.016;25.784;2023-07-08T00:32:58;99936.75;;;21.35;100.00
9523;BME280;63165;43.016;25.784;2023-07-08T00:35:32;100052.44;;;22.28;100.00
9523;BME280;63165;43.016;25.784;2023-07-08T00:38:00;100041.88;;;22.27;100.00
9523;BME280;63165;43.016;25.784;2023-07-08T00:40:29;99882.56;;;21.36;100.00
9523;BME280;63165;43.016;25.784;2023-07-08T00:42:58;100011.53;;;22.15;100.00
9523;BME280;63165;43.016;25.784;2023-07-08T00:45:38;99807.94;;;20.96;100.00
9523;BME280;63165;43.016;25.784;2023-07-08T00:48:18;99966.47;;;21.70;100.00
9523;BME280;63165;43.016;25.784;2023-07-08T00:50:46;100045.28;;;22.29;100.00
9523;BME280;63165;43.016;25.784;2023-07-08T00:53:22;99978.22;;;21.81;100.00
9523;BME280;63165;43.016;25.784;2023-07-08T00:55:51;100025.56;;;21.90;100.00
9523;BME280;63165;43.016;25.784;2023-07-08T00:58:21;100003.84;;;21.69;100.00
9523;BME280;63165;43.016;25.784;2023-07-08T01:00:53;100058.00;;;22.11;100.00
9523;BME280;63165;43.016;25.784;2023-07-08T01:03:23;100018.72;;;22.00;100.00
9523;BME280;63165;43.016;25.784;2023-07-08T01:05:53;100013.31;;;21.87;100.00
9523;BME280;63165;43.016;25.784;2023-07-08T01:08:26;100014.66;;;21.80;100.00
9523;BME280;63165;43.016;25.784;2023-07-08T01:13:34;100013.63;;;21.68;100.00
9523;BME280;63165;43.016;25.784;2023-07-08T01:16:04;100012.31;;;21.61;100.00
9523;BME280;63165;43.016;25.784;2023-07-08T01:18:32;100023.81;;;21.62;100.00
9523;BME280;63165;43.016;25.784;2023-07-08T01:21:03;100017.56;;;21.63;100.00
9523;BME280;63165;43.016;25.784;2023-07-08T01:23:34;100023.81;;;21.62;100.00
9523;BME280;63165;43.016;25.784;2023-07-08T01:26:05;100033.44;;;21.64;100.00
9523;BME280;63165;43.016;25.784;2023-07-08T01:28:33;100044.94;;;21.65;100.00
9523;BME280;63165;43.016;25.784;2023-07-08T01:31:14;100042.34;;;21.63;100.00
9523;BME280;63165;43.016;25.784;2023-07-08T01:34:04;100027.22;;;21.64;100.00
9523;BME280;63165;43.016;25.784;2023-07-08T01:36:38;100026.59;;;21.60;100.00
9523;BME280;63165;43.016;25.784;2023-07-08T01:39:12;100011.06;;;21.52;100.00
9523;BME280;63165;43.016;25.784;2023-07-08T01:41:40;100009.28;;;21.53;100.00
9523;BME280;63165;43.016;25.784;2023-07-08T01:47:22;99964.81;;;21.12;100.00
9523;BME280;63165;43.016;25.784;2023-07-08T01:49:50;100008.00;;;21.30;100.00
9523;BME280;63165;43.016;25.784;2023-07-08T01:52:17;100026.59;;;21.46;100.00
9523;BME280;63165;43.016;25.784;2023-07-08T01:54:54;100016.56;;;21.21;100.00
9523;BME280;63165;43.016;25.784;2023-07-08T01:57:21;100025.34;;;21.51;100.00
9523;BME280;63165;43.016;25.784;2023-07-08T01:59:49;99948.66;;;21.01;100.00
9523;BME280;63165;43.016;25.784;2023-07-08T02:02:16;100040.84;;;21.59;100.00
9523;BME280;63165;43.016;25.784;2023-07-08T02:04:44;100045.13;;;21.62;100.00
9523;BME280;63165;43.016;25.784;2023-07-08T02:07:11;99971.53;;;21.18;100.00
9523;BME280;63165;43.016;25.784;2023-07-08T02:09:39;100040.94;;;21.72;100.00
9523;BME280;63165;43.016;25.784;2023-07-08T02:12:09;100010.72;;;21.59;100.00
9523;BME280;63165;43.016;25.784;2023-07-08T02:14:36;100054.81;;;21.77;100.00
9523;BME280;63165;43.016;25.784;2023-07-08T02:17:03;100027.13;;;21.80;100.00
9523;BME280;63165;43.016;25.784;2023-07-08T02:19:31;99949.19;;;21.35;100.00
9523;BME280;63165;43.016;25.784;2023-07-08T02:21:58;99824.84;;;20.38;100.00
9523;BME280;63165;43.016;25.784;2023-07-08T02:24:26;100000.25;;;21.56;100.00
9523;BME280;63165;43.016;25.784;2023-07-08T02:26:53;100011.06;;;21.81;100.00
9523;BME280;63165;43.016;25.784;2023-07-08T02:29:22;100004.75;;;21.82;100.00
9523;BME280;63165;43.016;25.784;2023-07-08T02:31:50;100006.50;;;21.55;100.00
9523;BME280;63165;43.016;25.784;2023-07-08T02:34:17;100006.09;;;21.75;100.00
9523;BME280;63165;43.016;25.784;2023-07-08T02:36:44;100018.13;;;21.68;100.00
9523;BME280;63165;43.016;25.784;2023-07-08T02:39:11;99990.34;;;21.58;100.00
9523;BME280;63165;43.016;25.784;2023-07-08T02:41:39;99930.56;;;21.20;100.00
9523;BME280;63165;43.016;25.784;2023-07-08T02:44:07;100038.56;;;21.53;100.00
9523;BME280;63165;43.016;25.784;2023-07-08T02:46:35;99795.25;;;20.29;100.00
9523;BME280;63165;43.016;25.784;2023-07-08T02:49:03;99977.03;;;21.43;100.00
9523;BME280;63165;43.016;25.784;2023-07-08T02:51:31;99924.72;;;21.01;100.00
9523;BME280;63165;43.016;25.784;2023-07-08T02:53:59;100018.13;;;21.54;100.00
9523;BME280;63165;43.016;25.784;2023-07-08T02:56:26;99998.44;;;21.27;100.00
9523;BME280;63165;43.016;25.784;2023-07-08T02:58:53;99962.31;;;21.23;100.00
9523;BME280;63165;43.016;25.784;2023-07-08T03:01:21;99969.91;;;21.29;100.00
9523;BME280;63165;43.016;25.784;2023-07-08T03:03:50;100017.66;;;21.47;100.00
9523;BME280;63165;43.016;25.784;2023-07-08T03:06:22;100020.97;;;21.36;100.00
9523;BME280;63165;43.016;25.784;2023-07-08T03:08:51;99976.06;;;20.87;100.00
9523;BME280;63165;43.016;25.784;2023-07-08T03:11:18;100038.78;;;21.05;100.00
9523;BME280;63165;43.016;25.784;2023-07-08T03:13:45;100050.41;;;21.33;100.00
9523;BME280;63165;43.016;25.784;2023-07-08T03:16:13;100023.78;;;21.04;100.00
9523;BME280;63165;43.016;25.784;2023-07-08T03:18:40;100045.06;;;21.04;100.00
9523;BME280;63165;43.016;25.784;2023-07-08T03:21:15;100058.97;;;21.38;100.00
9523;BME280;63165;43.016;25.784;2023-07-08T03:23:43;99936.03;;;20.60;100.00
9523;BME280;63165;43.016;25.784;2023-07-08T03:26:13;100006.66;;;20.94;100.00
9523;BME280;63165;43.016;25.784;2023-07-08T03:28:44;100077.16;;;21.46;100.00
9523;BME280;63165;43.016;25.784;2023-07-08T03:31:12;100020.56;;;21.28;100.00
9523;BME280;63165;43.016;25.784;2023-07-08T03:33:39;99913.66;;;20.64;100.00
9523;BME280;63165;43.016;25.784;2023-07-08T03:36:12;100010.50;;;21.04;100.00
9523;BME280;63165;43.016;25.784;2023-07-08T03:38:50;100057.00;;;21.56;100.00
9523;BME280;63165;43.016;25.784;2023-07-08T03:41:18;99981.81;;;20.65;100.00
9523;BME280;63165;43.016;25.784;2023-07-08T03:43:45;100011.03;;;21.09;100.00
9523;BME280;63165;43.016;25.784;2023-07-08T03:46:13;100082.97;;;21.67;100.00
9523;BME280;63165;43.016;25.784;2023-07-08T03:48:40;100067.72;;;21.40;100.00
9523;BME280;63165;43.016;25.784;2023-07-08T03:51:10;100035.25;;;21.49;100.00
9523;BME280;63165;43.016;25.784;2023-07-08T03:53:41;100125.94;;;21.75;100.00
9523;BME280;63165;43.016;25.784;2023-07-08T03:56:11;100116.84;;;21.79;100.00
9523;BME280;63165;43.016;25.784;2023-07-08T03:58:39;100074.41;;;21.76;100.00
9523;BME280;63165;43.016;25.784;2023-07-08T04:01:10;100091.72;;;21.83;100.00
9523;BME280;63165;43.016;25.784;2023-07-08T04:03:41;100105.78;;;21.85;100.00
9523;BME280;63165;43.016;25.784;2023-07-08T04:06:08;100093.22;;;21.87;100.00
9523;BME280;63165;43.016;25.784;2023-07-08T04:08:35;100039.50;;;21.66;100.00
9523;BME280;63165;43.016;25.784;2023-07-08T04:11:03;100086.13;;;21.74;100.00
9523;BME280;63165;43.016;25.784;2023-07-08T04:13:33;100144.69;;;22.02;100.00
9523;BME280;63165;43.016;25.784;2023-07-08T04:16:02;100094.81;;;22.04;100.00
9523;BME280;63165;43.016;25.784;2023-07-08T04:18:30;100098.94;;;21.81;100.00
9523;BME280;63165;43.016;25.784;2023-07-08T04:20:58;100138.41;;;22.03;100.00
9523;BME280;63165;43.016;25.784;2023-07-08T04:23:29;100041.88;;;21.42;100.00
9523;BME280;63165;43.016;25.784;2023-07-08T04:25:59;100014.88;;;21.63;100.00
9523;BME280;63165;43.016;25.784;2023-07-08T04:28:30;100144.47;;;22.20;100.00
9523;BME280;63165;43.016;25.784;2023-07-08T04:31:01;100130.28;;;22.19;100.00
9523;BME280;63165;43.016;25.784;2023-07-08T04:33:31;100133.94;;;22.18;100.00
9523;BME280;63165;43.016;25.784;2023-07-08T04:36:00;100078.91;;;22.17;100.00
9523;BME280;63165;43.016;25.784;2023-07-08T04:38:28;100073.81;;;22.00;100.00
9523;BME280;63165;43.016;25.784;2023-07-08T04:40:57;100089.56;;;22.17;100.00
9523;BME280;63165;43.016;25.784;2023-07-08T04:43:26;100035.22;;;21.64;100.00
9523;BME280;63165;43.016;25.784;2023-07-08T04:45:54;100072.41;;;21.94;100.00
9523;BME280;63165;43.016;25.784;2023-07-08T04:48:24;99912.34;;;21.14;100.00
9523;BME280;63165;43.016;25.784;2023-07-08T04:50:53;100088.63;;;22.18;100.00
9523;BME280;63165;43.016;25.784;2023-07-08T04:55:56;100081.25;;;22.22;100.00
9523;BME280;63165;43.016;25.784;2023-07-08T04:58:24;100074.31;;;22.19;100.00
9523;BME280;63165;43.016;25.784;2023-07-08T05:00:52;100055.16;;;22.00;100.00
9523;BME280;63165;43.016;25.784;2023-07-08T05:03:19;100084.13;;;22.19;100.00
9523;BME280;63165;43.016;25.784;2023-07-08T05:05:49;100063.69;;;22.05;100.00
9523;BME280;63165;43.016;25.784;2023-07-08T05:08:17;100093.16;;;22.16;100.00
9523;BME280;63165;43.016;25.784;2023-07-08T05:10:44;100090.72;;;22.13;100.00
9523;BME280;63165;43.016;25.784;2023-07-08T05:13:12;100100.22;;;22.17;100.00
9523;BME280;63165;43.016;25.784;2023-07-08T05:15:39;100069.59;;;21.96;100.00
9523;BME280;63165;43.016;25.784;2023-07-08T05:18:06;100103.28;;;22.11;100.00
9523;BME280;63165;43.016;25.784;2023-07-08T05:20:34;100104.22;;;22.10;100.00
9523;BME280;63165;43.016;25.784;2023-07-08T05:23:04;100085.06;;;21.90;100.00
9523;BME280;63165;43.016;25.784;2023-07-08T05:25:33;100103.59;;;21.92;100.00
9523;BME280;63165;43.016;25.784;2023-07-08T05:28:00;100117.09;;;22.03;100.00
9523;BME280;63165;43.016;25.784;2023-07-08T05:30:28;100110.91;;;22.03;100.00
9523;BME280;63165;43.016;25.784;2023-07-08T05:32:55;100114.63;;;22.00;100.00
9523;BME280;63165;43.016;25.784;2023-07-08T05:35:22;100108.22;;;22.03;100.00
9523;BME280;63165;43.016;25.784;2023-07-08T10:22:26;100152.94;;;24.12;100.00
9523;BME280;63165;43.016;25.784;2023-07-08T10:25:13;100174.25;;;24.01;100.00
9523;BME280;63165;43.016;25.784;2023-07-08T10:27:52;100138.31;;;24.05;100.00
9523;BME280;63165;43.016;25.784;2023-07-08T10:30:26;100159.25;;;24.24;100.00
9523;BME280;63165;43.016;25.784;2023-07-08T10:33:23;100154.75;;;24.25;100.00
9523;BME280;63165;43.016;25.784;2023-07-08T10:36:09;100173.00;;;24.31;100.00
9523;BME280;63165;43.016;25.784;2023-07-08T10:38:50;99974.41;;;23.18;100.00
9523;BME280;63165;43.016;25.784;2023-07-08T10:41:28;100158.03;;;24.41;100.00
9523;BME280;63165;43.016;25.784;2023-07-08T10:44:05;100073.34;;;23.92;100.00
9523;BME280;63165;43.016;25.784;2023-07-08T10:46:40;100138.31;;;24.55;100.00
9523;BME280;63165;43.016;25.784;2023-07-08T10:49:34;100054.28;;;24.09;100.00
9523;BME280;63165;43.016;25.784;2023-07-08T10:52:23;100183.53;;;24.71;100.00
9523;BME280;63165;43.016;25.784;2023-07-08T10:55:08;100175.41;;;24.84;100.00
9523;BME280;63165;43.016;25.784;2023-07-08T10:57:42;100142.63;;;24.93;100.00
9523;BME280;63165;43.016;25.784;2023-07-08T11:00:22;100167.47;;;25.06;100.00
9523;BME280;63165;43.016;25.784;2023-07-08T11:03:26;100121.06;;;24.83;100.00
9523;BME280;63165;43.016;25.784;2023-07-08T11:06:01;100036.22;;;24.48;100.00
9523;BME280;63165;43.016;25.784;2023-07-08T11:08:32;100069.66;;;24.67;99.69
9523;BME280;63165;43.016;25.784;2023-07-08T11:11:08;100028.28;;;24.59;99.15
9523;BME280;63165;43.016;25.784;2023-07-08T11:13:43;100103.41;;;25.16;97.21
9523;BME280;63165;43.016;25.784;2023-07-08T11:16:16;100117.69;;;25.28;95.79
9523;BME280;63165;43.016;25.784;2023-07-08T11:18:55;100148.63;;;25.43;93.74
9523;BME280;63165;43.016;25.784;2023-07-08T11:21:29;100074.13;;;24.90;93.27
9523;BME280;63165;43.016;25.784;2023-07-08T11:24:02;100032.53;;;24.97;95.54
9523;BME280;63165;43.016;25.784;2023-07-08T11:26:37;100132.47;;;25.67;95.57
9523;BME280;63165;43.016;25.784;2023-07-08T11:29:15;100143.69;;;25.72;92.07
9523;BME280;63165;43.016;25.784;2023-07-08T11:31:46;100146.25;;;25.74;92.06
9523;BME280;63165;43.016;25.784;2023-07-08T11:34:17;100159.41;;;25.77;87.36
9523;BME280;63165;43.016;25.784;2023-07-08T11:36:46;100079.91;;;25.08;86.68
9523;BME280;63165;43.016;25.784;2023-07-08T11:39:31;100129.31;;;25.85;86.04
9523;BME280;63165;43.016;25.784;2023-07-08T11:44:51;100093.50;;;25.52;86.45
9523;BME280;63165;43.016;25.784;2023-07-08T11:47:24;100132.16;;;26.17;87.24
9523;BME280;63165;43.016;25.784;2023-07-08T11:49:53;100184.06;;;26.27;89.30
9523;BME280;63165;43.016;25.784;2023-07-08T11:52:23;99915.72;;;25.08;87.43
9523;BME280;63165;43.016;25.784;2023-07-08T11:54:56;99991.94;;;25.26;84.36
9523;BME280;63165;43.016;25.784;2023-07-08T11:57:28;100128.16;;;26.55;85.20
9523;BME280;63165;43.016;25.784;2023-07-08T12:00:17;100043.56;;;26.07;83.09
9523;BME280;63165;43.016;25.784;2023-07-08T12:02:52;100046.28;;;26.28;83.51
9523;BME280;63165;43.016;25.784;2023-07-08T12:05:33;99978.19;;;25.65;82.03
9523;BME280;63165;43.016;25.784;2023-07-08T12:08:12;100048.94;;;26.40;81.40
9523;BME280;63165;43.016;25.784;2023-07-08T12:10:48;100157.16;;;27.05;80.52
9523;BME280;63165;43.016;25.784;2023-07-08T12:13:28;100036.16;;;26.32;77.92
9523;BME280;63165;43.016;25.784;2023-07-08T12:15:57;100133.03;;;26.61;78.20
9523;BME280;63165;43.016;25.784;2023-07-08T12:18:28;100197.50;;;26.94;77.54
9523;BME280;63165;43.016;25.784;2023-07-08T12:21:04;100012.94;;;26.10;77.38
9523;BME280;63165;43.016;25.784;2023-07-08T12:23:32;100052.41;;;26.19;79.03
9523;BME280;63165;43.016;25.784;2023-07-08T12:26:00;99975.50;;;25.65;78.24
9523;BME280;63165;43.016;25.784;2023-07-08T12:28:28;99936.50;;;25.72;76.23
9523;BME280;63165;43.016;25.784;2023-07-08T12:30:58;99973.78;;;25.64;76.21
9523;BME280;63165;43.016;25.784;2023-07-08T12:33:28;100050.22;;;26.57;75.20
9523;BME280;63165;43.016;25.784;2023-07-08T12:35:59;100038.63;;;26.67;77.82
9523;BME280;63165;43.016;25.784;2023-07-08T12:38:37;100032.84;;;26.72;75.08
9523;BME280;63165;43.016;25.784;2023-07-08T12:41:18;100122.72;;;27.52;77.62
9523;BME280;63165;43.016;25.784;2023-07-08T12:43:46;100033.47;;;27.06;74.78
9523;BME280;63165;43.016;25.784;2023-07-08T12:46:17;100036.13;;;26.97;74.73
9523;BME280;63165;43.016;25.784;2023-07-08T12:48:45;100143.84;;;27.36;74.74
9523;BME280;63165;43.016;25.784;2023-07-08T12:51:15;100122.31;;;27.57;73.31
9523;BME280;63165;43.016;25.784;2023-07-08T12:53:43;100010.00;;;26.78;73.55
9523;BME280;63165;43.016;25.784;2023-07-08T12:56:11;100049.75;;;27.05;72.87
9523;BME280;63165;43.016;25.784;2023-07-08T12:58:41;100116.13;;;27.35;71.70
9523;BME280;63165;43.016;25.784;2023-07-08T13:01:14;100099.78;;;27.06;72.36
9523;BME280;63165;43.016;25.784;2023-07-08T13:03:46;100116.94;;;27.15;72.71
9523;BME280;63165;43.016;25.784;2023-07-08T13:06:18;99929.41;;;25.82;73.75
9523;BME280;63165;43.016;25.784;2023-07-08T13:08:47;99962.69;;;25.80;75.58
9523;BME280;63165;43.016;25.784;2023-07-08T13:11:16;100115.94;;;26.95;77.45
9523;BME280;63165;43.016;25.784;2023-07-08T13:13:49;99907.31;;;25.57;77.04
9523;BME280;63165;43.016;25.784;2023-07-08T13:16:17;100050.53;;;26.31;78.14
9523;BME280;63165;43.016;25.784;2023-07-08T13:18:47;99962.00;;;25.55;76.21
9523;BME280;63165;43.016;25.784;2023-07-08T13:21:26;99930.34;;;25.15;74.74
9523;BME280;63165;43.016;25.784;2023-07-08T13:24:10;99937.63;;;24.90;77.05
9523;BME280;63165;43.016;25.784;2023-07-08T13:26:38;100135.81;;;26.05;76.83
9523;BME280;63165;43.016;25.784;2023-07-08T13:29:11;100053.31;;;25.41;79.60
9523;BME280;63165;43.016;25.784;2023-07-08T13:31:45;100027.28;;;24.85;78.75
9523;BME280;63165;43.016;25.784;2023-07-08T13:34:18;100162.03;;;25.43;80.32
9523;BME280;63165;43.016;25.784;2023-07-08T13:36:50;100093.13;;;24.98;82.63
9523;BME280;63165;43.016;25.784;2023-07-08T13:39:24;100144.34;;;24.70;83.34
9523;BME280;63165;43.016;25.784;2023-07-08T13:41:54;100056.56;;;23.90;84.76
9523;BME280;63165;43.016;25.784;2023-07-08T13:44:22;99991.31;;;23.81;87.61
9523;BME280;63165;43.016;25.784;2023-07-08T13:46:52;100141.34;;;24.37;90.04
9523;BME280;63165;43.016;25.784;2023-07-08T13:49:25;100136.00;;;24.37;90.91
9523;BME280;63165;43.016;25.784;2023-07-08T13:52:06;100122.31;;;24.29;90.56
9523;BME280;63165;43.016;25.784;2023-07-08T13:54:40;99988.25;;;23.36;93.61
9523;BME280;63165;43.016;25.784;2023-07-08T13:57:10;100120.97;;;24.11;94.01
9523;BME280;63165;43.016;25.784;2023-07-08T13:59:41;100050.72;;;23.59;94.85
9523;BME280;63165;43.016;25.784;2023-07-08T14:02:18;99987.19;;;23.00;95.62
9523;BME280;63165;43.016;25.784;2023-07-08T14:04:54;100008.13;;;23.32;97.87
9523;BME280;63165;43.016;25.784;2023-07-08T14:07:25;100070.38;;;23.58;99.00
9523;BME280;63165;43.016;25.784;2023-07-08T14:09:54;100004.19;;;23.12;100.00
9523;BME280;63165;43.016;25.784;2023-07-08T14:12:23;100027.75;;;23.43;100.00
9523;BME280;63165;43.016;25.784;2023-07-08T14:14:51;100058.59;;;23.73;95.32
9523;BME280;63165;43.016;25.784;2023-07-08T14:17:34;100182.84;;;24.43;93.66
9523;BME280;63165;43.016;25.784;2023-07-08T14:20:36;100185.72;;;24.53;92.92
9523;BME280;63165;43.016;25.784;2023-07-08T14:23:05;99948.53;;;23.44;91.56
9523;BME280;63165;43.016;25.784;2023-07-08T14:25:32;99985.31;;;24.01;90.55
9523;BME280;63165;43.016;25.784;2023-07-08T14:28:03;100101.41;;;24.95;88.30
9523;BME280;63165;43.016;25.784;2023-07-08T14:30:31;100094.75;;;25.12;90.08
9523;BME280;63165;43.016;25.784;2023-07-08T14:33:00;100078.63;;;24.90;87.31
9523;BME280;63165;43.016;25.784;2023-07-08T14:35:30;100121.88;;;25.54;81.59
9523;BME280;63165;43.016;25.784;2023-07-08T14:37:58;100102.59;;;25.27;79.87
9523;BME280;63165;43.016;25.784;2023-07-08T14:40:27;100137.31;;;25.51;77.01
9523;BME280;63165;43.016;25.784;2023-07-08T14:43:18;100036.91;;;25.10;76.00
9523;BME280;63165;43.016;25.784;2023-07-08T14:45:48;100049.69;;;25.06;75.34
9523;BME280;63165;43.016;25.784;2023-07-08T14:48:20;99958.25;;;24.30;78.64
9523;BME280;63165;43.016;25.784;2023-07-08T14:50:50;100127.38;;;25.75;77.69
9523;BME280;63165;43.016;25.784;2023-07-08T14:53:21;99970.25;;;24.49;75.75
9523;BME280;63165;43.016;25.784;2023-07-08T14:55:51;100116.28;;;25.80;75.22
9523;BME280;63165;43.016;25.784;2023-07-08T14:58:27;99995.44;;;25.15;74.16
9523;BME280;63165;43.016;25.784;2023-07-08T15:00:57;99918.38;;;24.74;76.23
9523;BME280;63165;43.016;25.784;2023-07-08T15:03:34;99954.31;;;24.94;75.59
9523;BME280;63165;43.016;25.784;2023-07-08T15:06:11;100030.41;;;25.70;75.96
9523;BME280;63165;43.016;25.784;2023-07-08T15:08:42;100022.59;;;25.90;73.36
9523;BME280;63165;43.016;25.784;2023-07-08T15:11:11;100159.72;;;26.74;75.14
9523;BME280;63165;43.016;25.784;2023-07-08T15:13:40;100046.91;;;26.32;70.50
9523;BME280;63165;43.016;25.784;2023-07-08T15:16:12;100039.28;;;26.37;72.35
9523;BME280;63165;43.016;25.784;2023-07-08T15:18:42;100131.88;;;27.07;73.25
9523;BME280;63165;43.016;25.784;2023-07-08T15:21:12;100132.28;;;27.03;70.52
9523;BME280;63165;43.016;25.784;2023-07-08T15:23:40;100163.50;;;27.04;71.40
9523;BME280;63165;43.016;25.784;2023-07-08T15:26:09;100137.97;;;27.09;70.91
9523;BME280;63165;43.016;25.784;2023-07-08T15:28:42;100117.91;;;26.92;70.54
9523;BME280;63165;43.016;25.784;2023-07-08T15:31:14;100056.03;;;26.73;68.79
9523;BME280;63165;43.016;25.784;2023-07-08T15:33:42;100086.34;;;27.06;69.76
9523;BME280;63165;43.016;25.784;2023-07-08T15:36:13;100137.56;;;27.25;69.90
9523;BME280;63165;43.016;25.784;2023-07-08T15:38:41;100105.38;;;27.35;70.16
9523;BME280;63165;43.016;25.784;2023-07-08T15:41:15;100115.91;;;27.48;70.72
9523;BME280;63165;43.016;25.784;2023-07-08T15:43:45;100074.56;;;27.18;69.94
9523;BME280;63165;43.016;25.784;2023-07-08T15:46:16;100004.31;;;26.71;69.07
9523;BME280;63165;43.016;25.784;2023-07-08T15:48:44;100120.78;;;27.64;68.78
9523;BME280;63165;43.016;25.784;2023-07-08T15:51:15;100114.41;;;27.86;67.97
9523;BME280;63165;43.016;25.784;2023-07-08T15:53:44;99985.81;;;26.99;67.04
9523;BME280;63165;43.016;25.784;2023-07-08T15:56:14;100078.88;;;27.52;67.64
9523;BME280;63165;43.016;25.784;2023-07-08T15:58:43;100018.59;;;27.44;68.52
9523;BME280;63165;43.016;25.784;2023-07-08T16:01:17;99968.59;;;27.01;67.61
9523;BME280;63165;43.016;25.784;2023-07-08T16:03:46;100147.66;;;28.16;68.52
9523;BME280;63165;43.016;25.784;2023-07-08T16:06:17;100081.91;;;27.99;66.92
9523;BME280;63165;43.016;25.784;2023-07-08T16:08:46;100129.41;;;28.29;66.89
9523;BME280;63165;43.016;25.784;2023-07-08T16:11:15;100149.97;;;28.30;67.22
9523;BME280;63165;43.016;25.784;2023-07-08T16:13:44;100132.25;;;28.27;65.98
9523;BME280;63165;43.016;25.784;2023-07-08T16:16:12;100085.31;;;28.01;66.93
9523;BME280;63165;43.016;25.784;2023-07-08T16:18:40;100037.72;;;27.92;66.00
9523;BME280;63165;43.016;25.784;2023-07-08T16:21:07;100061.13;;;28.01;65.30
9523;BME280;63165;43.016;25.784;2023-07-08T16:23:36;100141.31;;;28.26;65.56
9523;BME280;63165;43.016;25.784;2023-07-08T16:26:04;100098.81;;;27.80;66.38
9523;BME280;63165;43.016;25.784;2023-07-08T16:28:34;100080.41;;;27.23;67.14
9523;BME280;63165;43.016;25.784;2023-07-08T16:31:09;100070.78;;;27.00;67.64
9523;BME280;63165;43.016;25.784;2023-07-08T16:33:38;100134.38;;;26.99;68.71
9523;BME280;63165;43.016;25.784;2023-07-08T16:36:10;100042.72;;;26.39;69.73
9523;BME280;63165;43.016;25.784;2023-07-08T16:38:40;100036.25;;;25.87;71.24
9523;BME280;63165;43.016;25.784;2023-07-08T16:41:10;99974.53;;;25.32;72.59
9523;BME280;63165;43.016;25.784;2023-07-08T16:43:38;100100.91;;;26.27;72.21
9523;BME280;63165;43.016;25.784;2023-07-08T16:46:08;100039.41;;;25.69;73.75
9523;BME280;63165;43.016;25.784;2023-07-08T16:48:36;100139.81;;;26.10;74.70
9523;BME280;63165;43.016;25.784;2023-07-08T16:51:07;100094.63;;;25.49;76.88
9523;BME280;63165;43.016;25.784;2023-07-08T16:53:41;99958.03;;;24.69;77.71
9523;BME280;63165;43.016;25.784;2023-07-08T16:56:10;100039.31;;;25.48;78.21
9523;BME280;63165;43.016;25.784;2023-07-08T16:58:38;100042.13;;;25.00;79.18
9523;BME280;63165;43.016;25.784;2023-07-08T17:01:09;99905.13;;;24.26;80.03
9523;BME280;63165;43.016;25.784;2023-07-08T17:03:40;100135.66;;;25.72;80.70
9523;BME280;63165;43.016;25.784;2023-07-08T17:06:08;99924.84;;;24.36;81.62
9523;BME280;63165;43.016;25.784;2023-07-08T17:08:35;100059.16;;;25.34;82.02
9523;BME280;63165;43.016;25.784;2023-07-08T17:11:15;100097.66;;;25.56;82.90
9523;BME280;63165;43.016;25.784;2023-07-08T17:13:43;100092.16;;;25.57;83.02
9523;BME280;63165;43.016;25.784;2023-07-08T17:16:14;99974.47;;;24.75;82.90
9523;BME280;63165;43.016;25.784;2023-07-08T17:18:42;100121.28;;;25.15;83.81
9523;BME280;63165;43.016;25.784;2023-07-08T17:21:13;100099.78;;;25.28;84.51
9523;BME280;63165;43.016;25.784;2023-07-08T17:23:41;100085.81;;;25.00;85.32
9523;BME280;63165;43.016;25.784;2023-07-08T17:26:14;100075.44;;;24.85;85.90
9523;BME280;63165;43.016;25.784;2023-07-08T17:28:41;100087.34;;;24.80;86.75
9523;BME280;63165;43.016;25.784;2023-07-08T17:31:13;100159.13;;;24.87;87.36
9523;BME280;63165;43.016;25.784;2023-07-08T17:33:43;100117.94;;;24.65;88.04
9523;BME280;63165;43.016;25.784;2023-07-08T17:36:11;100010.00;;;23.68;89.85
9523;BME280;63165;43.016;25.784;2023-07-08T17:38:43;100108.47;;;24.11;91.50
9523;BME280;63165;43.016;25.784;2023-07-08T17:41:14;100048.38;;;23.54;92.66
9523;BME280;63165;43.016;25.784;2023-07-08T17:43:41;100141.59;;;24.09;93.99
9523;BME280;63165;43.016;25.784;2023-07-08T17:46:09;100083.22;;;23.40;94.84
9523;BME280;63165;43.016;25.784;2023-07-08T17:48:38;100152.31;;;23.96;96.05
9523;BME280;63165;43.016;25.784;2023-07-08T17:51:11;100154.50;;;23.91;96.22
9523;BME280;63165;43.016;25.784;2023-07-08T17:53:39;100056.72;;;23.11;96.90
9523;BME280;63165;43.016;25.784;2023-07-08T17:56:17;100182.13;;;23.77;97.52
9523;BME280;63165;43.016;25.784;2023-07-08T17:58:48;100123.59;;;23.61;100.00
9523;BME280;63165;43.016;25.784;2023-07-08T18:01:16;100035.31;;;22.98;99.50
9523;BME280;63165;43.016;25.784;2023-07-08T18:03:44;100189.63;;;23.59;99.59